createdAt,value
2023-05-21T00:00:22.307Z,10.70
2023-05-21T00:02:49.493Z,10.70
2023-05-21T00:05:18.353Z,10.70
2023-05-21T00:07:47.168Z,10.70
2023-05-21T00:10:14.150Z,10.80
2023-05-21T00:12:41.985Z,10.70
2023-05-21T00:15:09.416Z,10.80
2023-05-21T00:17:36.969Z,10.80
2023-05-21T00:20:10.032Z,10.80
2023-05-21T00:22:36.935Z,10.80
2023-05-21T00:25:04.313Z,10.80
2023-05-21T00:27:31.152Z,10.80
2023-05-21T00:29:58.256Z,10.80
2023-05-21T00:32:25.638Z,10.80
2023-05-21T00:34:52.644Z,10.80
2023-05-21T00:37:20.708Z,10.80
2023-05-21T00:39:48.062Z,10.80
2023-05-21T00:42:18.050Z,10.80
2023-05-21T00:44:45.638Z,10.80
2023-05-21T00:47:13.917Z,10.80
2023-05-21T00:49:41.321Z,10.80
2023-05-21T00:52:47.549Z,10.80
2023-05-21T00:55:14.803Z,10.70
2023-05-21T00:57:42.827Z,10.70
2023-05-21T01:00:10.752Z,10.70
2023-05-21T01:02:38.359Z,10.70
2023-05-21T01:05:06.769Z,10.70
2023-05-21T01:07:41.412Z,10.70
2023-05-21T01:10:10.448Z,10.70
2023-05-21T01:12:39.724Z,10.70
2023-05-21T01:15:07.234Z,10.60
2023-05-21T01:17:34.485Z,10.60
2023-05-21T01:20:02.006Z,10.60
2023-05-21T01:22:34.384Z,10.60
2023-05-21T01:25:02.904Z,10.60
2023-05-21T01:27:29.959Z,10.60
2023-05-21T01:29:57.736Z,10.50
2023-05-21T01:32:36.672Z,10.50
2023-05-21T01:35:27.356Z,10.50
2023-05-21T01:38:17.454Z,10.40
2023-05-21T01:40:59.531Z,10.40
2023-05-21T01:43:29.293Z,10.40
2023-05-21T01:45:58.913Z,10.30
2023-05-21T01:48:30.448Z,10.30
2023-05-21T01:51:01.130Z,10.30
2023-05-21T01:53:28.105Z,10.30
2023-05-21T01:55:55.476Z,10.20
2023-05-21T01:58:22.957Z,10.20
2023-05-21T02:00:51.180Z,10.20
2023-05-21T02:03:19.576Z,10.20
2023-05-21T02:05:47.303Z,10.10
2023-05-21T02:08:15.261Z,10.10
2023-05-21T02:10:42.270Z,10.10
2023-05-21T02:13:09.088Z,10.10
2023-05-21T02:15:36.098Z,10.00
2023-05-21T02:18:03.562Z,10.00
2023-05-21T02:20:31.393Z,10.00
2023-05-21T02:22:58.261Z,10.00
2023-05-21T02:25:25.284Z,10.00
2023-05-21T02:27:56.718Z,10.00
2023-05-21T02:30:23.697Z,10.00
2023-05-21T02:32:50.779Z,10.00
2023-05-21T02:35:17.889Z,10.00
2023-05-21T02:37:44.943Z,10.00
2023-05-21T02:40:12.711Z,10.00
2023-05-21T02:42:41.216Z,9.90
2023-05-21T02:45:09.825Z,10.00
2023-05-21T02:47:36.884Z,9.90
2023-05-21T02:50:05.853Z,9.90
2023-05-21T02:52:32.601Z,10.00
2023-05-21T02:54:59.387Z,9.90
2023-05-21T02:57:26.146Z,10.00
2023-05-21T02:59:52.983Z,10.00
2023-05-21T03:02:19.782Z,10.00
2023-05-21T03:04:46.792Z,10.00
2023-05-21T03:07:14.618Z,10.00
2023-05-21T03:09:42.534Z,10.00
2023-05-21T03:12:10.731Z,10.10
2023-05-21T03:14:38.405Z,10.10
2023-05-21T03:17:08.146Z,10.10
2023-05-21T03:19:36.398Z,10.10
2023-05-21T03:22:04.010Z,10.10
2023-05-21T03:24:31.728Z,10.10
2023-05-21T03:26:59.315Z,10.20
2023-05-21T03:29:26.273Z,10.20
2023-05-21T03:31:53.999Z,10.20
2023-05-21T03:34:21.128Z,10.20
2023-05-21T03:36:48.204Z,10.20
2023-05-21T03:39:15.548Z,10.20
2023-05-21T03:41:42.789Z,10.30
2023-05-21T03:44:09.738Z,10.30
2023-05-21T03:46:36.787Z,10.30
2023-05-21T03:49:03.774Z,10.30
2023-05-21T03:51:31.841Z,10.40
2023-05-21T03:53:59.518Z,10.40
2023-05-21T03:56:26.378Z,10.40
2023-05-21T03:58:53.628Z,10.40
2023-05-21T04:01:20.488Z,10.50
2023-05-21T04:03:47.636Z,10.50
2023-05-21T04:06:15.500Z,10.50
2023-05-21T04:08:42.701Z,10.50
2023-05-21T04:11:09.569Z,10.60
2023-05-21T04:13:36.390Z,10.60
2023-05-21T04:16:03.272Z,10.60
2023-05-21T04:18:30.059Z,10.70
2023-05-21T04:20:57.013Z,10.70
2023-05-21T04:23:24.239Z,10.70
2023-05-21T04:25:51.307Z,10.80
2023-05-21T04:28:21.223Z,10.80
2023-05-21T04:30:49.923Z,10.90
2023-05-21T04:33:18.237Z,10.90
2023-05-21T04:35:47.407Z,10.90
2023-05-21T04:38:19.698Z,11.00
2023-05-21T04:40:53.520Z,11.00
2023-05-21T04:43:26.213Z,11.10
2023-05-21T04:45:57.107Z,11.10
2023-05-21T04:48:24.833Z,11.20
2023-05-21T04:50:53.509Z,11.20
2023-05-21T04:53:20.761Z,11.30
2023-05-21T04:55:48.005Z,11.30
2023-05-21T04:58:17.959Z,11.40
2023-05-21T05:00:50.634Z,11.40
2023-05-21T05:03:17.787Z,11.50
2023-05-21T05:05:44.716Z,11.50
2023-05-21T05:08:13.967Z,11.60
2023-05-21T05:10:42.751Z,11.70
2023-05-21T05:13:09.843Z,11.80
2023-05-21T05:15:37.014Z,11.90
2023-05-21T05:18:04.182Z,12.00
2023-05-21T05:20:31.173Z,12.10
2023-05-21T05:22:58.077Z,12.20
2023-05-21T05:25:24.969Z,12.30
2023-05-21T05:27:51.797Z,12.50
2023-05-21T05:30:18.613Z,12.60
2023-05-21T05:32:45.781Z,12.80
2023-05-21T05:35:12.996Z,12.90
2023-05-21T05:37:39.852Z,13.00
2023-05-21T05:40:08.175Z,13.20
2023-05-21T05:42:35.001Z,13.40
2023-05-21T05:45:01.869Z,13.50
2023-05-21T05:47:28.682Z,13.70
2023-05-21T05:49:55.710Z,13.90
2023-05-21T05:52:22.593Z,14.00
2023-05-21T05:54:49.412Z,14.20
2023-05-21T05:57:16.385Z,14.40
2023-05-21T05:59:43.244Z,14.60
2023-05-21T06:02:10.095Z,14.80
2023-05-21T06:04:36.970Z,15.00
2023-05-21T06:07:03.958Z,15.30
2023-05-21T06:09:30.961Z,15.50
2023-05-21T06:11:57.807Z,15.90
2023-05-21T06:14:24.650Z,16.20
2023-05-21T06:16:51.428Z,16.40
2023-05-21T06:19:18.990Z,16.70
2023-05-21T06:21:45.854Z,16.80
2023-05-21T06:24:12.649Z,17.00
2023-05-21T06:26:39.486Z,17.10
2023-05-21T06:29:06.318Z,17.10
2023-05-21T06:31:33.446Z,17.00
2023-05-21T06:34:01.094Z,17.00
2023-05-21T06:36:30.138Z,17.10
2023-05-21T06:38:57.239Z,17.20
2023-05-21T06:41:24.463Z,17.20
2023-05-21T06:43:51.434Z,17.30
2023-05-21T06:46:18.356Z,17.40
2023-05-21T06:48:46.351Z,17.50
2023-05-21T06:51:13.212Z,17.50
2023-05-21T06:53:40.106Z,17.60
2023-05-21T06:56:07.159Z,17.80
2023-05-21T06:58:34.075Z,18.00
2023-05-21T07:01:01.531Z,18.40
2023-05-21T07:03:28.539Z,18.60
2023-05-21T07:05:56.207Z,18.90
2023-05-21T07:08:23.249Z,19.10
2023-05-21T07:10:50.290Z,19.30
2023-05-21T07:13:17.147Z,19.50
2023-05-21T07:15:43.935Z,19.80
2023-05-21T07:18:11.729Z,20.10
2023-05-21T07:20:38.658Z,20.40
2023-05-21T07:23:05.492Z,20.60
2023-05-21T07:25:32.293Z,20.80
2023-05-21T07:27:59.108Z,21.10
2023-05-21T07:30:26.051Z,21.20
2023-05-21T07:32:52.919Z,21.50
2023-05-21T07:35:20.543Z,21.70
2023-05-21T07:37:48.136Z,22.00
2023-05-21T07:40:15.156Z,22.20
2023-05-21T07:42:42.021Z,22.50
2023-05-21T07:45:09.189Z,22.70
2023-05-21T07:47:36.142Z,23.00
2023-05-21T07:50:03.406Z,23.00
2023-05-21T07:52:30.549Z,23.20
2023-05-21T07:54:57.591Z,23.40
2023-05-21T07:57:24.633Z,23.50
2023-05-21T07:59:51.710Z,23.70
2023-05-21T08:02:18.756Z,23.90
2023-05-21T08:04:46.087Z,24.40
2023-05-21T08:07:13.779Z,24.50
2023-05-21T08:09:40.713Z,24.50
2023-05-21T08:12:07.976Z,25.10
2023-05-21T08:14:34.790Z,25.20
2023-05-21T08:17:01.697Z,25.60
2023-05-21T08:19:28.584Z,25.90
2023-05-21T08:21:55.726Z,26.10
2023-05-21T08:24:22.789Z,25.50
2023-05-21T08:26:50.656Z,25.20
2023-05-21T08:29:17.553Z,24.70
2023-05-21T08:31:44.387Z,24.70
2023-05-21T08:34:11.255Z,25.10
2023-05-21T08:36:38.386Z,25.30
2023-05-21T08:39:05.203Z,25.30
2023-05-21T08:41:36.269Z,25.60
2023-05-21T08:44:04.176Z,26.20
2023-05-21T08:46:36.508Z,26.40
2023-05-21T08:49:03.994Z,26.60
2023-05-21T08:51:31.471Z,26.70
2023-05-21T08:54:00.311Z,27.30
2023-05-21T08:56:27.675Z,27.60
2023-05-21T08:58:55.538Z,26.80
2023-05-21T09:01:24.787Z,26.50
2023-05-21T09:04:04.835Z,26.40
2023-05-21T09:06:36.276Z,26.50
2023-05-21T09:09:11.581Z,26.80
2023-05-21T09:11:38.408Z,27.20
2023-05-21T09:14:05.948Z,27.20
2023-05-21T09:16:32.902Z,27.40
2023-05-21T09:19:01.117Z,27.40
2023-05-21T09:21:31.700Z,26.90
2023-05-21T09:23:59.844Z,26.40
2023-05-21T09:26:27.074Z,26.20
2023-05-21T09:28:59.125Z,26.50
2023-05-21T09:31:26.986Z,26.70
2023-05-21T09:33:55.576Z,27.50
2023-05-21T09:36:22.798Z,27.70
2023-05-21T09:38:52.107Z,27.80
2023-05-21T09:41:22.168Z,27.70
2023-05-21T09:43:49.633Z,27.90
2023-05-21T09:46:20.598Z,28.50
2023-05-21T09:48:47.549Z,29.20
2023-05-21T09:51:16.084Z,29.60
2023-05-21T09:53:54.595Z,29.30
2023-05-21T09:56:24.610Z,29.90
2023-05-21T09:58:56.854Z,30.10
2023-05-21T10:01:27.467Z,29.20
2023-05-21T10:03:56.745Z,29.50
2023-05-21T10:06:32.196Z,29.40
2023-05-21T10:09:05.434Z,30.10
2023-05-21T10:11:33.708Z,29.40
2023-05-21T10:14:19.954Z,29.30
2023-05-21T10:16:48.130Z,29.00
2023-05-21T10:21:43.763Z,29.40
2023-05-21T10:24:11.249Z,29.00
2023-05-21T10:26:39.687Z,28.30
2023-05-21T10:29:08.971Z,28.00
2023-05-21T10:31:36.371Z,27.70
2023-05-21T10:34:06.296Z,27.20
2023-05-21T10:36:34.238Z,26.80
2023-05-21T10:39:01.976Z,26.40
2023-05-21T10:41:35.801Z,26.40
2023-05-21T10:44:09.181Z,26.40
2023-05-21T10:46:48.009Z,26.40
2023-05-21T10:49:30.425Z,26.10
2023-05-21T10:52:26.608Z,26.10
2023-05-21T10:54:54.375Z,25.80
2023-05-21T10:57:42.980Z,25.70
2023-05-21T11:00:13.483Z,25.50
2023-05-21T11:02:40.712Z,25.60
2023-05-21T11:05:08.023Z,25.60
2023-05-21T11:07:57.050Z,25.70
2023-05-21T11:10:45.278Z,25.80
2023-05-21T11:13:16.621Z,26.20
2023-05-21T11:15:58.908Z,26.70
2023-05-21T11:18:38.400Z,26.90
2023-05-21T11:21:12.420Z,26.70
2023-05-21T11:24:03.896Z,26.90
2023-05-21T11:26:52.145Z,26.80
2023-05-21T11:29:20.000Z,26.80
2023-05-21T11:31:48.465Z,27.10
2023-05-21T11:34:18.920Z,27.20
2023-05-21T11:36:49.770Z,27.40
2023-05-21T11:39:23.906Z,27.80
2023-05-21T11:42:04.703Z,28.30
2023-05-21T11:44:48.630Z,28.50
2023-05-21T11:47:20.249Z,29.00
2023-05-21T11:49:48.083Z,28.70
2023-05-21T11:52:15.235Z,28.90
2023-05-21T11:54:50.613Z,28.90
2023-05-21T11:57:21.315Z,28.50
2023-05-21T11:59:51.438Z,28.40
2023-05-21T12:02:22.481Z,28.60
2023-05-21T12:04:50.752Z,28.40
2023-05-21T12:07:20.816Z,28.50
2023-05-21T12:09:51.421Z,29.00
2023-05-21T12:12:19.926Z,29.50
2023-05-21T12:14:48.551Z,30.20
2023-05-21T12:17:20.241Z,30.60
2023-05-21T12:19:47.870Z,30.10
2023-05-21T12:22:17.501Z,30.10
2023-05-21T12:24:45.185Z,30.50
2023-05-21T12:27:13.512Z,30.80
2023-05-21T12:29:46.101Z,30.40
2023-05-21T12:32:14.640Z,30.60
2023-05-21T12:34:49.747Z,30.60
2023-05-21T12:37:24.365Z,30.40
2023-05-21T12:39:55.798Z,30.30
2023-05-21T12:42:35.324Z,30.50
2023-05-21T12:45:09.355Z,30.50
2023-05-21T12:47:36.751Z,30.70
2023-05-21T12:50:08.078Z,30.80
2023-05-21T12:52:34.929Z,30.30
2023-05-21T12:55:01.837Z,30.40
2023-05-21T12:57:37.089Z,30.40
2023-05-21T13:00:08.896Z,30.40
2023-05-21T13:02:44.152Z,30.90
2023-05-21T13:05:19.985Z,30.80
2023-05-21T13:07:47.897Z,30.80
2023-05-21T13:10:16.334Z,30.90
2023-05-21T13:12:44.643Z,30.80
2023-05-21T13:15:12.091Z,30.70
2023-05-21T13:17:39.238Z,30.80
2023-05-21T13:20:09.534Z,30.80
2023-05-21T13:22:47.785Z,30.70
2023-05-21T13:25:21.108Z,30.60
2023-05-21T13:27:49.446Z,30.90
2023-05-21T13:30:16.530Z,30.40
2023-05-21T13:32:43.939Z,30.10
2023-05-21T13:35:12.033Z,29.80
2023-05-21T13:37:40.455Z,29.50
2023-05-21T13:40:11.269Z,29.20
2023-05-21T13:42:38.673Z,28.70
2023-05-21T13:45:07.716Z,28.30
2023-05-21T13:47:36.253Z,28.20
2023-05-21T13:50:05.788Z,28.40
2023-05-21T13:52:32.768Z,28.40
2023-05-21T13:54:59.703Z,28.30
2023-05-21T13:57:27.149Z,28.10
2023-05-21T13:59:54.101Z,27.80
2023-05-21T14:02:21.011Z,27.80
2023-05-21T14:04:48.093Z,27.80
2023-05-21T14:07:14.928Z,27.80
2023-05-21T14:09:42.297Z,27.80
2023-05-21T14:12:09.460Z,27.70
2023-05-21T14:14:36.252Z,27.40
2023-05-21T14:17:03.131Z,27.10
2023-05-21T14:19:30.331Z,26.90
2023-05-21T14:21:57.282Z,26.60
2023-05-21T14:24:24.138Z,26.60
2023-05-21T14:26:50.952Z,26.70
2023-05-21T14:29:17.789Z,26.60
2023-05-21T14:31:46.764Z,26.40
2023-05-21T14:34:13.648Z,26.50
2023-05-21T14:36:40.522Z,26.40
2023-05-21T14:39:07.384Z,26.20
2023-05-21T14:41:34.188Z,26.20
2023-05-21T14:44:01.000Z,26.30
2023-05-21T14:46:28.064Z,26.20
2023-05-21T14:48:59.449Z,26.30
2023-05-21T14:51:26.227Z,26.20
2023-05-21T14:53:53.032Z,26.20
2023-05-21T14:56:23.725Z,26.20
2023-05-21T14:58:50.923Z,26.50
2023-05-21T15:01:18.477Z,26.60
2023-05-21T15:03:46.148Z,26.30
2023-05-21T15:06:13.512Z,26.30
2023-05-21T15:08:40.321Z,26.20
2023-05-21T15:11:10.272Z,26.20
2023-05-21T15:13:38.092Z,26.20
2023-05-21T15:16:05.316Z,26.00
2023-05-21T15:18:32.118Z,25.90
2023-05-21T15:20:59.236Z,25.80
2023-05-21T15:23:26.078Z,25.70
2023-05-21T15:25:53.003Z,25.70
2023-05-21T15:28:24.791Z,25.60
2023-05-21T15:30:52.146Z,25.60
2023-05-21T15:33:21.081Z,25.70
2023-05-21T15:35:48.132Z,25.60
2023-05-21T15:38:15.367Z,25.50
2023-05-21T15:40:42.669Z,25.40
2023-05-21T15:43:09.547Z,25.40
2023-05-21T15:45:36.777Z,25.30
2023-05-21T15:48:04.103Z,25.20
2023-05-21T15:50:30.928Z,25.20
2023-05-21T15:52:57.769Z,25.10
2023-05-21T15:55:24.652Z,25.10
2023-05-21T15:57:51.489Z,25.00
2023-05-21T16:00:18.571Z,24.90
2023-05-21T16:02:45.444Z,24.60
2023-05-21T16:05:12.353Z,24.50
2023-05-21T16:07:39.146Z,24.50
2023-05-21T16:10:10.640Z,24.40
2023-05-21T16:12:38.750Z,24.30
2023-05-21T16:15:06.267Z,24.30
2023-05-21T16:17:33.211Z,24.40
2023-05-21T16:20:00.347Z,24.20
2023-05-21T16:22:27.221Z,24.00
2023-05-21T16:24:55.696Z,23.80
2023-05-21T16:27:22.544Z,23.80
2023-05-21T16:29:49.515Z,23.70
2023-05-21T16:32:16.558Z,23.60
2023-05-21T16:34:43.413Z,23.50
2023-05-21T16:37:10.394Z,23.40
2023-05-21T16:39:37.427Z,23.40
2023-05-21T16:42:04.756Z,23.40
2023-05-21T16:44:32.213Z,23.30
2023-05-21T16:47:00.047Z,23.30
2023-05-21T16:49:27.642Z,23.30
2023-05-21T16:51:54.736Z,23.30
2023-05-21T16:54:21.712Z,23.20
2023-05-21T16:56:48.632Z,23.20
2023-05-21T16:59:16.307Z,23.20
2023-05-21T17:01:43.298Z,23.20
2023-05-21T17:04:10.982Z,23.20
2023-05-21T17:06:37.776Z,23.10
2023-05-21T17:09:04.751Z,23.10
2023-05-21T17:11:31.722Z,23.00
2023-05-21T17:13:58.682Z,22.90
2023-05-21T17:16:25.542Z,22.90
2023-05-21T17:18:52.752Z,22.80
2023-05-21T17:21:19.813Z,22.80
2023-05-21T17:23:46.801Z,22.70
2023-05-21T17:26:13.976Z,22.60
2023-05-21T17:28:40.942Z,22.60
2023-05-21T17:31:08.986Z,22.60
2023-05-21T17:33:37.375Z,22.50
2023-05-21T17:36:04.449Z,22.50
2023-05-21T17:38:31.392Z,22.40
2023-05-21T17:40:59.209Z,22.40
2023-05-21T17:43:28.993Z,22.30
2023-05-21T17:45:55.849Z,22.30
2023-05-21T17:48:22.774Z,22.30
2023-05-21T17:50:49.809Z,22.10
2023-05-21T17:53:19.921Z,22.10
2023-05-21T17:55:48.949Z,22.00
2023-05-21T17:58:15.955Z,21.90
2023-05-21T18:00:42.762Z,21.80
2023-05-21T18:03:09.638Z,21.70
2023-05-21T18:05:36.810Z,21.60
2023-05-21T18:08:04.753Z,21.60
2023-05-21T18:10:31.640Z,21.50
2023-05-21T18:12:58.548Z,21.40
2023-05-21T18:15:27.106Z,21.30
2023-05-21T18:17:55.294Z,21.30
2023-05-21T18:20:22.245Z,21.20
2023-05-21T18:22:49.176Z,21.10
2023-05-21T18:25:16.109Z,21.10
2023-05-21T18:27:42.994Z,21.00
2023-05-21T18:30:12.547Z,21.00
2023-05-21T18:32:39.593Z,20.90
2023-05-21T18:35:08.204Z,20.80
2023-05-21T18:37:35.071Z,20.80
2023-05-21T18:40:01.941Z,20.70
2023-05-21T18:42:28.727Z,20.60
2023-05-21T18:44:56.028Z,20.60
2023-05-21T18:47:22.999Z,20.50
2023-05-21T18:49:49.897Z,20.40
2023-05-21T18:52:16.750Z,20.30
2023-05-21T18:54:43.655Z,20.30
2023-05-21T18:57:10.637Z,20.20
2023-05-21T18:59:38.817Z,20.10
2023-05-21T19:02:05.754Z,20.00
2023-05-21T19:04:32.829Z,20.00
2023-05-21T19:06:59.784Z,19.90
2023-05-21T19:09:26.719Z,19.90
2023-05-21T19:11:53.612Z,19.80
2023-05-21T19:14:21.036Z,19.70
2023-05-21T19:16:47.946Z,19.70
2023-05-21T19:19:14.901Z,19.60
2023-05-21T19:21:41.778Z,19.60
2023-05-21T19:24:08.649Z,19.50
2023-05-21T19:26:35.561Z,19.50
2023-05-21T19:29:02.424Z,19.50
2023-05-21T19:31:29.409Z,19.40
2023-05-21T19:33:56.275Z,19.40
2023-05-21T19:36:24.097Z,19.30
2023-05-21T19:38:51.117Z,19.30
2023-05-21T19:41:18.707Z,19.30
2023-05-21T19:43:46.104Z,19.20
2023-05-21T19:46:14.286Z,19.20
2023-05-21T19:48:42.300Z,19.10
2023-05-21T19:51:09.183Z,19.10
2023-05-21T19:53:36.511Z,19.10
2023-05-21T19:56:03.317Z,19.00
2023-05-21T19:58:30.499Z,19.00
2023-05-21T20:01:00.560Z,18.90
2023-05-21T20:03:28.601Z,18.90
2023-05-21T20:05:55.495Z,18.80
2023-05-21T20:08:22.823Z,18.80
2023-05-21T20:10:51.992Z,18.80
2023-05-21T20:13:19.481Z,18.80
2023-05-21T20:15:47.905Z,18.70
2023-05-21T20:18:15.404Z,18.60
2023-05-21T20:20:42.833Z,18.60
2023-05-21T20:23:09.643Z,18.60
2023-05-21T20:25:36.547Z,18.50
2023-05-21T20:28:04.324Z,18.50
2023-05-21T20:30:51.379Z,18.50
2023-05-21T20:33:18.656Z,18.50
2023-05-21T20:35:45.596Z,18.50
2023-05-21T20:38:12.724Z,18.40
2023-05-21T20:40:39.676Z,18.40
2023-05-21T20:43:06.924Z,18.40
2023-05-21T20:45:35.726Z,18.40
2023-05-21T20:48:03.416Z,18.40
2023-05-21T20:50:30.299Z,18.40
2023-05-21T20:52:58.095Z,18.30
2023-05-21T20:55:25.454Z,18.30
2023-05-21T20:57:52.579Z,18.30
2023-05-21T21:00:19.718Z,18.20
2023-05-21T21:02:46.595Z,18.20
2023-05-21T21:05:13.530Z,18.20
2023-05-21T21:07:40.390Z,18.20
2023-05-21T21:10:07.755Z,18.10
2023-05-21T21:12:34.607Z,18.10
2023-05-21T21:15:01.395Z,18.10
2023-05-21T21:17:28.255Z,18.00
2023-05-21T21:19:55.482Z,18.00
2023-05-21T21:22:22.464Z,18.00
2023-05-21T21:24:49.271Z,18.00
2023-05-21T21:27:16.234Z,17.90
2023-05-21T21:29:43.071Z,17.90
2023-05-21T21:32:09.860Z,17.90
2023-05-21T21:34:36.699Z,17.80
2023-05-21T21:37:03.943Z,17.80
2023-05-21T21:39:30.989Z,17.80
2023-05-21T21:41:58.091Z,17.70
2023-05-21T21:44:24.907Z,17.70
2023-05-21T21:46:51.787Z,17.60
2023-05-21T21:49:18.594Z,17.60
2023-05-21T21:51:45.752Z,17.60
2023-05-21T21:54:12.716Z,17.60
2023-05-21T21:56:39.630Z,17.50
2023-05-21T21:59:06.456Z,17.50
2023-05-21T22:01:33.594Z,17.50
2023-05-21T22:04:00.532Z,17.40
2023-05-21T22:06:28.547Z,17.40
2023-05-21T22:08:55.542Z,17.30
2023-05-21T22:11:22.667Z,17.30
2023-05-21T22:13:49.584Z,17.30
2023-05-21T22:16:16.505Z,17.20
2023-05-21T22:18:43.717Z,17.20
2023-05-21T22:21:14.444Z,17.10
2023-05-21T22:23:41.584Z,17.10
2023-05-21T22:26:09.723Z,17.10
2023-05-21T22:28:36.725Z,17.00
2023-05-21T22:31:03.595Z,17.00
2023-05-21T22:33:30.790Z,16.90
2023-05-21T22:35:58.121Z,16.90
2023-05-21T22:38:25.658Z,16.80
2023-05-21T22:40:52.483Z,16.80
2023-05-21T22:43:19.373Z,16.80
2023-05-21T22:45:46.356Z,16.70
2023-05-21T22:48:14.229Z,16.70
2023-05-21T22:50:41.290Z,16.70
2023-05-21T22:53:08.464Z,16.60
2023-05-21T22:55:35.328Z,16.60
2023-05-21T22:58:02.642Z,16.50
2023-05-21T23:00:29.600Z,16.50
2023-05-21T23:02:56.599Z,16.40
2023-05-21T23:05:23.555Z,16.40
2023-05-21T23:07:50.452Z,16.30
2023-05-21T23:10:17.391Z,16.30
2023-05-21T23:12:44.184Z,16.30
2023-05-21T23:15:11.433Z,16.20
2023-05-21T23:17:38.642Z,16.20
2023-05-21T23:20:08.149Z,16.10
2023-05-21T23:22:35.610Z,16.10
2023-05-21T23:25:02.911Z,16.00
2023-05-21T23:27:29.788Z,16.00
2023-05-21T23:29:56.712Z,16.00
2023-05-21T23:32:23.924Z,15.90
2023-05-21T23:34:50.975Z,15.90
2023-05-21T23:37:17.907Z,15.90
2023-05-21T23:39:48.232Z,15.90
2023-05-21T23:42:16.317Z,15.80
2023-05-21T23:44:43.241Z,15.80
2023-05-21T23:47:10.226Z,15.80
2023-05-21T23:49:37.151Z,15.80
2023-05-21T23:52:05.849Z,15.70
2023-05-21T23:54:32.657Z,15.70
2023-05-21T23:56:59.427Z,15.70
2023-05-21T23:59:26.242Z,15.60
